createdAt,value
2022-08-11T00:01:14.389Z,3.58
2022-08-11T00:03:48.033Z,3.22
2022-08-11T00:06:24.058Z,3.42
2022-08-11T00:08:54.271Z,3.60
2022-08-11T00:11:24.072Z,3.28
2022-08-11T00:13:55.372Z,3.45
2022-08-11T00:16:25.316Z,3.58
2022-08-11T00:18:58.043Z,3.20
2022-08-11T00:21:32.486Z,3.42
2022-08-11T00:24:17.635Z,3.33
2022-08-11T00:26:50.224Z,3.38
2022-08-11T00:29:19.003Z,3.92
2022-08-11T00:31:50.701Z,3.45
2022-08-11T00:34:21.497Z,3.58
2022-08-11T00:36:52.799Z,3.40
2022-08-11T00:39:29.255Z,3.40
2022-08-11T00:42:11.789Z,3.58
2022-08-11T00:44:48.444Z,3.83
2022-08-11T00:47:28.404Z,3.65
2022-08-11T00:50:11.028Z,3.45
2022-08-11T00:52:55.598Z,3.63
2022-08-11T00:56:09.496Z,3.42
2022-08-11T00:59:34.084Z,3.67
2022-08-11T01:02:15.437Z,3.72
2022-08-11T01:05:12.106Z,3.72
2022-08-11T01:08:17.945Z,3.13
2022-08-11T01:11:15.128Z,3.72
2022-08-11T01:14:09.609Z,3.42
2022-08-11T01:17:14.813Z,3.65
2022-08-11T01:20:44.637Z,3.85
2022-08-11T01:23:47.662Z,3.65
2022-08-11T01:26:51.208Z,3.22
2022-08-11T01:29:57.857Z,3.63
2022-08-11T01:33:11.617Z,3.63
2022-08-11T01:36:17.889Z,3.22
2022-08-11T01:39:18.376Z,3.67
2022-08-11T01:42:22.693Z,3.80
2022-08-11T01:45:17.247Z,3.78
2022-08-11T01:47:56.937Z,3.67
2022-08-11T01:51:29.352Z,3.65
2022-08-11T01:54:05.043Z,3.58
2022-08-11T01:56:50.674Z,3.40
2022-08-11T01:59:22.801Z,3.75
2022-08-11T02:02:06.890Z,3.53
2022-08-11T02:04:39.281Z,4.18
2022-08-11T02:07:18.042Z,3.97
2022-08-11T02:09:57.232Z,3.20
2022-08-11T02:12:42.257Z,3.40
2022-08-11T02:15:26.731Z,3.13
2022-08-11T02:18:09.114Z,3.45
2022-08-11T02:21:02.678Z,3.47
2022-08-11T02:24:05.990Z,3.38
2022-08-11T02:26:41.024Z,3.78
2022-08-11T02:29:17.759Z,3.88
2022-08-11T02:32:28.726Z,3.58
2022-08-11T02:35:05.290Z,3.63
2022-08-11T02:37:45.253Z,3.55
2022-08-11T02:40:23.807Z,3.60
2022-08-11T02:43:02.934Z,3.70
2022-08-11T02:45:47.343Z,3.70
2022-08-11T02:48:44.084Z,3.72
2022-08-11T02:51:21.759Z,3.65
2022-08-11T02:53:59.123Z,3.55
2022-08-11T02:56:44.649Z,3.70
2022-08-11T02:59:43.706Z,3.70
2022-08-11T03:02:16.592Z,3.92
2022-08-11T03:04:57.052Z,3.90
2022-08-11T03:07:31.262Z,3.92
2022-08-11T03:10:10.873Z,3.80
2022-08-11T03:13:10.862Z,3.65
2022-08-11T03:16:04.410Z,3.72
2022-08-11T03:18:41.922Z,3.75
2022-08-11T03:21:18.818Z,3.92
2022-08-11T03:23:54.811Z,3.80
2022-08-11T03:26:28.971Z,3.72
2022-08-11T03:29:21.252Z,3.25
2022-08-11T03:32:02.289Z,3.75
2022-08-11T03:34:32.721Z,3.80
2022-08-11T03:37:34.745Z,3.58
2022-08-11T03:40:11.745Z,3.67
2022-08-11T03:42:47.606Z,3.40
2022-08-11T03:45:25.915Z,3.67
2022-08-11T03:48:11.280Z,3.75
2022-08-11T03:50:55.651Z,3.80
2022-08-11T03:53:40.783Z,3.35
2022-08-11T03:56:40.330Z,4.10
2022-08-11T03:59:46.063Z,3.70
2022-08-11T04:02:33.677Z,4.00
2022-08-11T04:05:31.224Z,4.05
2022-08-11T04:08:34.271Z,3.55
2022-08-11T04:11:48.043Z,4.22
2022-08-11T04:15:01.552Z,3.95
2022-08-11T04:18:01.090Z,3.67
2022-08-11T04:20:50.483Z,3.70
2022-08-11T04:24:33.063Z,3.72
2022-08-11T04:27:02.669Z,4.25
2022-08-11T04:30:04.925Z,3.92
2022-08-11T04:32:55.015Z,4.03
2022-08-11T04:35:47.358Z,3.78
2022-08-11T04:38:45.992Z,3.92
2022-08-11T04:41:34.338Z,3.65
2022-08-11T04:44:39.172Z,3.83
2022-08-11T04:48:04.191Z,3.70
2022-08-11T04:51:04.049Z,4.35
2022-08-11T04:54:13.724Z,3.88
2022-08-11T04:57:02.432Z,4.10
2022-08-11T05:00:19.571Z,4.13
2022-08-11T05:03:32.135Z,4.95
2022-08-11T05:06:36.765Z,3.97
2022-08-11T05:09:32.789Z,3.90
2022-08-11T05:12:21.096Z,4.32
2022-08-11T05:15:09.839Z,4.32
2022-08-11T05:18:14.309Z,4.78
2022-08-11T05:21:08.689Z,4.30
2022-08-11T05:23:59.094Z,5.72
2022-08-11T05:26:49.336Z,4.72
2022-08-11T05:29:56.958Z,4.82
2022-08-11T05:32:44.322Z,4.65
2022-08-11T05:36:00.413Z,4.57
2022-08-11T05:38:20.624Z,4.57
2022-08-11T05:41:08.423Z,5.38
2022-08-11T05:44:20.512Z,5.18
2022-08-11T05:47:05.409Z,5.18
2022-08-11T05:49:52.523Z,4.68
2022-08-11T05:52:43.607Z,4.80
2022-08-11T05:55:34.070Z,4.68
2022-08-11T05:58:04.572Z,5.07
2022-08-11T06:00:34.475Z,5.03
2022-08-11T06:03:07.438Z,5.25
2022-08-11T06:05:38.573Z,5.05
2022-08-11T06:08:13.891Z,5.28
2022-08-11T06:10:44.180Z,4.70
2022-08-11T06:13:17.260Z,5.03
2022-08-11T06:15:46.778Z,5.13
2022-08-11T06:18:15.566Z,4.93
2022-08-11T06:20:51.322Z,4.97
2022-08-11T06:23:23.331Z,4.68
2022-08-11T06:25:52.580Z,4.85
2022-08-11T06:28:22.849Z,5.03
2022-08-11T06:30:51.428Z,5.13
2022-08-11T06:33:22.556Z,5.13
2022-08-11T06:36:01.084Z,4.57
2022-08-11T06:38:59.320Z,4.90
2022-08-11T06:41:33.618Z,4.90
2022-08-11T06:44:11.760Z,4.40
2022-08-11T06:46:42.748Z,4.43
2022-08-11T06:49:26.842Z,4.30
2022-08-11T06:51:56.746Z,4.45
2022-08-11T06:54:34.164Z,4.18
2022-08-11T06:57:35.732Z,4.18
2022-08-11T07:00:28.906Z,3.75
2022-08-11T07:03:01.742Z,3.80
2022-08-11T07:05:43.806Z,4.05
2022-08-11T07:08:55.145Z,3.75
2022-08-11T07:12:21.476Z,4.05
2022-08-11T07:15:10.340Z,4.00
2022-08-11T07:17:49.815Z,3.90
2022-08-11T07:20:36.841Z,3.38
2022-08-11T07:23:25.666Z,4.20
2022-08-11T07:26:09.088Z,4.10
2022-08-11T07:28:59.137Z,3.67
2022-08-11T07:31:36.791Z,3.67
2022-08-11T07:34:18.521Z,3.42
2022-08-11T07:36:52.249Z,3.40
2022-08-11T07:39:23.205Z,3.60
2022-08-11T07:41:53.845Z,3.60
2022-08-11T07:44:29.498Z,3.78
2022-08-11T07:47:18.621Z,3.67
2022-08-11T07:50:07.965Z,3.42
2022-08-11T07:52:39.953Z,3.13
2022-08-11T07:55:10.394Z,3.50
2022-08-11T07:58:15.551Z,3.40
2022-08-11T08:01:10.183Z,2.97
2022-08-11T08:03:57.603Z,3.35
2022-08-11T08:06:43.595Z,3.78
2022-08-11T08:09:30.193Z,3.58
2022-08-11T08:12:18.876Z,3.22
2022-08-11T08:15:04.563Z,2.72
2022-08-11T08:18:09.072Z,3.13
2022-08-11T08:20:41.361Z,2.50
2022-08-11T08:23:09.956Z,2.90
2022-08-11T08:25:40.548Z,3.95
2022-08-11T08:28:11.842Z,2.90
2022-08-11T08:30:48.308Z,2.92
2022-08-11T08:33:21.531Z,3.30
2022-08-11T08:36:11.338Z,2.60
2022-08-11T08:38:41.798Z,2.53
2022-08-11T08:41:13.216Z,2.17
2022-08-11T08:43:48.954Z,2.45
2022-08-11T08:46:21.654Z,2.40
2022-08-11T08:48:53.200Z,2.40
2022-08-11T08:52:01.121Z,2.55
2022-08-11T08:54:34.036Z,2.30
2022-08-11T08:57:05.411Z,2.20
2022-08-11T08:59:47.465Z,3.05
2022-08-11T09:02:18.332Z,2.40
2022-08-11T09:04:48.275Z,2.22
2022-08-11T09:07:19.015Z,2.40
2022-08-11T09:09:52.850Z,1.90
2022-08-11T09:12:36.019Z,2.30
2022-08-11T09:15:12.360Z,2.22
2022-08-11T09:17:42.420Z,2.05
2022-08-11T09:20:14.934Z,1.90
2022-08-11T09:24:02.008Z,2.22
2022-08-11T09:26:11.185Z,2.30
2022-08-11T09:28:39.220Z,2.10
2022-08-11T09:31:08.300Z,1.92
2022-08-11T09:33:37.148Z,2.03
2022-08-11T09:36:23.747Z,1.90
2022-08-11T09:39:10.317Z,2.03
2022-08-11T09:42:00.969Z,2.20
2022-08-11T09:44:46.402Z,1.80
2022-08-11T09:47:24.089Z,2.08
2022-08-11T09:49:54.655Z,1.75
2022-08-11T09:52:25.668Z,2.00
2022-08-11T09:54:55.592Z,1.95
2022-08-11T09:57:42.408Z,2.10
2022-08-11T10:00:13.956Z,2.40
2022-08-11T10:02:44.918Z,2.20
2022-08-11T10:05:32.156Z,2.22
2022-08-11T10:08:02.008Z,2.80
2022-08-11T10:10:33.255Z,2.40
2022-08-11T10:13:06.150Z,2.00
2022-08-11T10:16:14.536Z,2.03
2022-08-11T10:18:52.303Z,2.20
2022-08-11T10:21:28.515Z,2.15
2022-08-11T10:24:18.629Z,2.50
2022-08-11T10:26:55.246Z,2.22
2022-08-11T10:29:49.628Z,2.28
2022-08-11T10:32:57.694Z,2.50
2022-08-11T10:35:28.855Z,2.42
2022-08-11T10:38:06.732Z,2.33
2022-08-11T10:40:41.268Z,2.10
2022-08-11T10:43:13.791Z,2.20
2022-08-11T10:46:03.095Z,2.63
2022-08-11T10:48:35.787Z,2.80
2022-08-11T10:51:14.781Z,2.30
2022-08-11T10:54:02.792Z,3.28
2022-08-11T10:56:53.772Z,2.45
2022-08-11T10:59:23.182Z,2.53
2022-08-11T11:01:53.482Z,2.42
2022-08-11T11:04:28.482Z,2.55
2022-08-11T11:07:04.101Z,2.63
2022-08-11T11:09:34.023Z,2.20
2022-08-11T11:12:34.736Z,2.50
2022-08-11T11:15:22.364Z,2.28
2022-08-11T11:17:57.290Z,2.33
2022-08-11T11:20:35.929Z,2.30
2022-08-11T11:23:09.258Z,2.45
2022-08-11T11:26:14.544Z,2.22
2022-08-11T11:29:07.202Z,2.20
2022-08-11T11:31:49.691Z,1.98
2022-08-11T11:34:34.876Z,2.15
2022-08-11T11:37:04.387Z,2.22
2022-08-11T11:39:34.139Z,2.10
2022-08-11T11:42:04.944Z,2.20
2022-08-11T11:44:35.399Z,2.20
2022-08-11T11:47:03.467Z,2.15
2022-08-11T11:49:33.251Z,2.08
2022-08-11T11:52:01.747Z,2.00
2022-08-11T11:54:33.789Z,2.22
2022-08-11T11:57:25.129Z,2.50
2022-08-11T12:00:13.064Z,2.30
2022-08-11T12:02:43.038Z,2.15
2022-08-11T12:05:11.895Z,2.33
2022-08-11T12:08:10.385Z,2.33
2022-08-11T12:10:44.074Z,2.22
2022-08-11T12:13:30.540Z,2.22
2022-08-11T12:16:31.428Z,2.10
2022-08-11T12:18:53.890Z,2.30
2022-08-11T12:21:22.792Z,3.30
2022-08-11T12:24:09.789Z,2.33
2022-08-11T12:27:15.152Z,2.30
2022-08-11T12:29:47.444Z,2.30
2022-08-11T12:32:20.426Z,2.70
2022-08-11T12:34:48.601Z,2.40
2022-08-11T12:37:20.719Z,2.30
2022-08-11T12:40:16.867Z,2.40
2022-08-11T12:43:21.939Z,2.40
2022-08-11T12:45:52.080Z,2.40
2022-08-11T12:48:58.383Z,2.30
2022-08-11T12:52:12.552Z,2.53
2022-08-11T12:54:45.920Z,2.50
2022-08-11T12:57:46.056Z,2.35
2022-08-11T13:00:33.471Z,2.10
2022-08-11T13:03:20.669Z,2.40
2022-08-11T13:05:53.133Z,2.15
2022-08-11T13:08:23.018Z,2.50
2022-08-11T13:11:10.059Z,2.50
2022-08-11T13:13:54.100Z,2.20
2022-08-11T13:16:27.371Z,1.90
2022-08-11T13:18:56.267Z,1.90
2022-08-11T13:21:26.892Z,2.50
2022-08-11T13:24:01.115Z,2.10
2022-08-11T13:26:45.037Z,2.28
2022-08-11T13:29:19.044Z,2.08
2022-08-11T13:31:47.506Z,2.03
2022-08-11T13:34:17.369Z,2.45
2022-08-11T13:36:46.992Z,2.30
2022-08-11T13:39:15.188Z,2.30
2022-08-11T13:41:46.745Z,2.30
2022-08-11T13:44:23.088Z,2.58
2022-08-11T13:46:53.507Z,1.90
2022-08-11T13:49:22.829Z,2.20
2022-08-11T13:51:53.127Z,2.10
2022-08-11T13:54:23.329Z,2.00
2022-08-11T13:56:53.850Z,2.30
2022-08-11T13:59:29.515Z,2.13
2022-08-11T14:02:28.670Z,2.03
2022-08-11T14:04:55.539Z,2.25
2022-08-11T14:07:28.520Z,1.90
2022-08-11T14:10:00.266Z,2.28
2022-08-11T14:12:49.984Z,1.95
2022-08-11T14:15:22.734Z,1.70
2022-08-11T14:17:56.451Z,2.00
2022-08-11T14:20:39.030Z,1.80
2022-08-11T14:23:12.636Z,2.40
2022-08-11T14:26:02.841Z,1.77
2022-08-11T14:28:40.072Z,1.90
2022-08-11T14:31:12.531Z,1.70
2022-08-11T14:33:59.688Z,1.73
2022-08-11T14:36:32.186Z,1.92
2022-08-11T14:39:04.321Z,1.77
2022-08-11T14:42:10.802Z,1.90
2022-08-11T14:44:56.802Z,1.67
2022-08-11T14:47:25.896Z,2.08
2022-08-11T14:50:05.056Z,1.45
2022-08-11T14:52:39.354Z,1.60
2022-08-11T14:55:27.639Z,1.60
2022-08-11T14:57:57.464Z,1.80
2022-08-11T15:00:26.013Z,2.25
2022-08-11T15:03:13.786Z,2.00
2022-08-11T15:05:57.555Z,1.60
2022-08-11T15:08:47.035Z,1.60
2022-08-11T15:11:35.934Z,1.65
2022-08-11T15:14:07.286Z,1.60
2022-08-11T15:16:54.942Z,1.63
2022-08-11T15:19:22.980Z,1.45
2022-08-11T15:22:08.946Z,1.60
2022-08-11T15:24:37.379Z,1.70
2022-08-11T15:27:30.072Z,1.50
2022-08-11T15:30:32.257Z,1.70
2022-08-11T15:33:23.377Z,1.85
2022-08-11T15:36:10.014Z,1.52
2022-08-11T15:38:43.910Z,2.00
2022-08-11T15:41:34.026Z,1.52
2022-08-11T15:44:51.382Z,1.63
2022-08-11T15:47:18.929Z,1.80
2022-08-11T15:50:11.027Z,2.00
2022-08-11T15:52:49.298Z,1.67
2022-08-11T15:55:18.024Z,1.60
2022-08-11T15:58:06.058Z,1.60
2022-08-11T16:01:02.054Z,1.70
2022-08-11T16:03:54.445Z,1.80
2022-08-11T16:06:36.401Z,1.30
2022-08-11T16:09:10.176Z,1.50
2022-08-11T16:11:47.732Z,1.38
2022-08-11T16:14:34.768Z,1.23
2022-08-11T16:17:05.698Z,1.60
2022-08-11T16:19:36.523Z,1.50
2022-08-11T16:22:09.042Z,1.70
2022-08-11T16:27:01.614Z,1.52
2022-08-11T16:27:29.148Z,1.50
2022-08-11T16:29:58.091Z,1.95
2022-08-11T16:32:27.673Z,2.03
2022-08-11T16:35:16.998Z,1.50
2022-08-11T16:38:03.262Z,1.48
2022-08-11T16:40:33.447Z,1.67
2022-08-11T16:43:20.518Z,1.63
2022-08-11T16:46:07.357Z,1.50
2022-08-11T16:48:39.075Z,1.42
2022-08-11T16:51:08.281Z,1.40
2022-08-11T16:53:46.004Z,1.33
2022-08-11T16:56:29.735Z,1.40
2022-08-11T16:59:16.255Z,1.45
2022-08-11T17:01:47.946Z,1.60
2022-08-11T17:04:43.195Z,1.58
2022-08-11T17:07:42.365Z,1.80
2022-08-11T17:10:52.324Z,1.60
2022-08-11T17:13:28.828Z,1.88
2022-08-11T17:16:07.791Z,1.40
2022-08-11T17:18:43.866Z,1.80
2022-08-11T17:21:18.625Z,1.40
2022-08-11T17:23:50.122Z,1.80
2022-08-11T17:26:20.878Z,1.90
2022-08-11T17:28:53.580Z,1.50
2022-08-11T17:31:40.449Z,1.40
2022-08-11T17:34:27.016Z,1.45
2022-08-11T17:36:57.743Z,1.52
2022-08-11T17:39:29.626Z,1.33
2022-08-11T17:42:16.075Z,1.40
2022-08-11T17:45:03.102Z,1.58
2022-08-11T17:47:52.248Z,1.70
2022-08-11T17:50:20.817Z,1.45
2022-08-11T17:53:11.494Z,1.30
2022-08-11T17:55:58.307Z,1.77
2022-08-11T17:58:44.617Z,1.60
2022-08-11T18:01:13.992Z,1.50
2022-08-11T18:03:54.620Z,1.30
2022-08-11T18:06:34.035Z,1.58
2022-08-11T18:09:24.016Z,1.65
2022-08-11T18:12:12.808Z,1.52
2022-08-11T18:15:00.633Z,1.65
2022-08-11T18:17:46.126Z,1.67
2022-08-11T18:20:31.509Z,1.70
2022-08-11T18:23:18.605Z,1.70
2022-08-11T18:26:07.862Z,1.90
2022-08-11T18:29:00.691Z,2.40
2022-08-11T18:31:47.961Z,1.73
2022-08-11T18:34:39.252Z,1.83
2022-08-11T18:37:29.450Z,1.80
2022-08-11T18:40:18.908Z,1.70
2022-08-11T18:43:08.304Z,1.40
2022-08-11T18:46:06.845Z,1.60
2022-08-11T18:48:55.444Z,1.50
2022-08-11T18:51:42.763Z,1.50
2022-08-11T18:54:31.415Z,1.60
2022-08-11T18:57:20.525Z,1.45
2022-08-11T19:00:10.397Z,1.50
2022-08-11T19:02:58.321Z,1.80
2022-08-11T19:06:32.026Z,2.53
2022-08-11T19:08:58.607Z,3.60
2022-08-11T19:11:45.576Z,2.13
2022-08-11T19:14:31.733Z,1.83
2022-08-11T19:17:43.912Z,2.50
2022-08-11T19:20:27.705Z,2.78
2022-08-11T19:23:14.976Z,2.50
2022-08-11T19:26:02.763Z,2.70
2022-08-11T19:28:49.138Z,2.80
2022-08-11T19:31:34.947Z,2.65
2022-08-11T19:34:24.217Z,2.47
2022-08-11T19:37:12.714Z,2.83
2022-08-11T19:40:00.554Z,2.47
2022-08-11T19:42:47.169Z,2.58
2022-08-11T19:45:34.547Z,3.40
2022-08-11T19:48:31.650Z,3.00
2022-08-11T19:51:19.455Z,2.30
2022-08-11T19:54:07.398Z,2.00
2022-08-11T19:56:53.841Z,2.08
2022-08-11T19:59:41.234Z,2.00
2022-08-11T20:02:27.857Z,1.80
2022-08-11T20:05:13.152Z,1.80
2022-08-11T20:08:01.288Z,1.55
2022-08-11T20:10:49.538Z,1.73
2022-08-11T20:13:36.179Z,1.90
2022-08-11T20:16:28.067Z,1.80
2022-08-11T20:19:14.304Z,1.70
2022-08-11T20:22:02.652Z,2.20
2022-08-11T20:24:54.858Z,2.00
2022-08-11T20:27:42.239Z,2.03
2022-08-11T20:30:28.759Z,2.10
2022-08-11T20:33:14.916Z,2.13
2022-08-11T20:36:00.264Z,2.10
2022-08-11T20:38:49.799Z,2.05
2022-08-11T20:41:58.312Z,2.13
2022-08-11T20:44:46.853Z,2.10
2022-08-11T20:47:59.781Z,2.17
2022-08-11T20:50:41.850Z,2.20
2022-08-11T20:53:35.950Z,2.03
2022-08-11T20:56:28.261Z,2.00
2022-08-11T20:59:18.578Z,2.30
2022-08-11T21:02:09.439Z,2.50
2022-08-11T21:04:57.145Z,2.00
2022-08-11T21:07:57.002Z,2.05
2022-08-11T21:10:51.466Z,2.13
2022-08-11T21:13:38.921Z,4.30
2022-08-11T21:16:27.748Z,4.55
2022-08-11T21:20:00.306Z,2.63
2022-08-11T21:22:27.978Z,2.33
2022-08-11T21:25:16.626Z,2.13
2022-08-11T21:28:04.571Z,2.25
2022-08-11T21:30:57.652Z,2.38
2022-08-11T21:33:45.650Z,2.20
2022-08-11T21:36:32.712Z,2.35
2022-08-11T21:39:19.308Z,2.70
2022-08-11T21:42:11.312Z,2.13
2022-08-11T21:44:57.137Z,2.50
2022-08-11T21:47:44.329Z,2.10
2022-08-11T21:50:31.598Z,2.22
2022-08-11T21:53:19.218Z,2.28
2022-08-11T21:56:05.188Z,2.30
2022-08-11T21:58:51.888Z,2.20
2022-08-11T22:01:38.162Z,2.15
2022-08-11T22:04:24.879Z,2.00
2022-08-11T22:07:12.844Z,2.05
2022-08-11T22:09:58.463Z,2.10
2022-08-11T22:12:45.234Z,2.08
2022-08-11T22:15:31.945Z,2.30
2022-08-11T22:18:17.588Z,2.03
2022-08-11T22:21:03.981Z,2.05
2022-08-11T22:23:54.690Z,2.13
2022-08-11T22:26:41.721Z,2.05
2022-08-11T22:29:50.140Z,2.08
2022-08-11T22:32:35.414Z,1.67
2022-08-11T22:35:21.862Z,2.13
2022-08-11T22:38:07.891Z,1.90
2022-08-11T22:40:55.226Z,2.03
2022-08-11T22:43:40.837Z,2.05
2022-08-11T22:46:26.416Z,2.33
2022-08-11T22:49:12.393Z,2.28
2022-08-11T22:52:00.171Z,2.47
2022-08-11T22:54:47.479Z,1.85
2022-08-11T22:57:34.653Z,1.90
2022-08-11T23:00:20.222Z,2.15
2022-08-11T23:03:06.408Z,2.05
2022-08-11T23:05:56.899Z,2.17
2022-08-11T23:08:43.034Z,2.47
2022-08-11T23:12:06.206Z,2.22
2022-08-11T23:14:39.145Z,2.17
2022-08-11T23:17:25.062Z,2.10
2022-08-11T23:20:20.915Z,2.28
2022-08-11T23:23:17.487Z,2.53
2022-08-11T23:26:05.101Z,2.20
2022-08-11T23:28:52.004Z,2.15
2022-08-11T23:31:50.588Z,1.90
2022-08-11T23:35:02.599Z,1.95
2022-08-11T23:37:44.583Z,2.38
2022-08-11T23:40:30.349Z,2.20
2022-08-11T23:43:16.294Z,2.15
2022-08-11T23:46:01.740Z,2.15
2022-08-11T23:48:49.468Z,2.15
2022-08-11T23:51:41.105Z,2.00
2022-08-11T23:54:28.340Z,2.20
2022-08-11T23:57:13.613Z,2.40
2022-08-11T23:59:59.127Z,2.00
